createdAt,value
2023-03-17T00:00:25.537Z,2.63
2023-03-17T00:02:52.979Z,2.53
2023-03-17T00:05:27.599Z,2.53
2023-03-17T00:07:55.716Z,2.50
2023-03-17T00:10:25.215Z,2.53
2023-03-17T00:12:56.329Z,2.80
2023-03-17T00:15:24.628Z,3.13
2023-03-17T00:17:51.805Z,2.50
2023-03-17T00:20:27.837Z,2.75
2023-03-17T00:22:57.572Z,3.65
2023-03-17T00:27:52.075Z,2.50
2023-03-17T00:30:21.164Z,2.78
2023-03-17T00:32:49.610Z,2.70
2023-03-17T00:35:18.501Z,2.60
2023-03-17T00:37:46.795Z,2.25
2023-03-17T00:40:19.004Z,3.00
2023-03-17T00:42:46.280Z,2.90
2023-03-17T00:45:15.726Z,3.10
2023-03-17T00:47:43.339Z,2.65
2023-03-17T00:50:12.157Z,2.50
2023-03-17T00:52:40.740Z,2.95
2023-03-17T00:55:10.232Z,2.50
2023-03-17T00:57:38.628Z,2.80
2023-03-17T01:00:06.792Z,2.53
2023-03-17T01:02:34.789Z,2.80
2023-03-17T01:05:06.746Z,2.42
2023-03-17T01:07:35.047Z,2.65
2023-03-17T01:10:02.294Z,2.90
2023-03-17T01:12:29.535Z,2.65
2023-03-17T01:14:56.713Z,2.80
2023-03-17T01:17:23.996Z,2.70
2023-03-17T01:19:51.217Z,2.67
2023-03-17T01:22:18.972Z,2.70
2023-03-17T01:24:47.745Z,2.85
2023-03-17T01:27:14.951Z,2.60
2023-03-17T01:29:43.089Z,2.47
2023-03-17T01:32:10.670Z,2.58
2023-03-17T01:34:37.937Z,2.50
2023-03-17T01:37:05.275Z,2.60
2023-03-17T01:39:33.463Z,2.70
2023-03-17T01:42:01.432Z,2.85
2023-03-17T01:44:29.583Z,2.65
2023-03-17T01:46:57.630Z,2.60
2023-03-17T01:49:25.016Z,2.40
2023-03-17T01:51:58.821Z,2.42
2023-03-17T01:54:26.056Z,2.30
2023-03-17T01:56:55.262Z,2.50
2023-03-17T01:59:25.913Z,2.42
2023-03-17T02:01:58.013Z,2.42
2023-03-17T02:04:26.831Z,2.90
2023-03-17T02:06:58.660Z,2.45
2023-03-17T02:09:26.671Z,2.45
2023-03-17T02:11:54.449Z,2.35
2023-03-17T02:14:22.026Z,2.40
2023-03-17T02:16:49.454Z,2.30
2023-03-17T02:19:16.847Z,2.55
2023-03-17T02:21:48.312Z,2.58
2023-03-17T02:24:19.976Z,2.50
2023-03-17T02:26:47.938Z,2.60
2023-03-17T02:29:15.385Z,2.28
2023-03-17T02:31:42.643Z,2.70
2023-03-17T02:34:09.903Z,2.30
2023-03-17T02:36:37.858Z,2.33
2023-03-17T02:39:05.541Z,2.30
2023-03-17T02:41:32.899Z,2.50
2023-03-17T02:44:00.601Z,2.53
2023-03-17T02:46:28.299Z,2.40
2023-03-17T02:48:59.092Z,2.42
2023-03-17T02:51:27.131Z,2.30
2023-03-17T02:53:54.442Z,2.25
2023-03-17T02:56:21.733Z,2.22
2023-03-17T02:58:49.003Z,2.45
2023-03-17T03:01:16.587Z,2.38
2023-03-17T03:03:43.948Z,2.35
2023-03-17T03:06:11.173Z,2.70
2023-03-17T03:08:38.457Z,2.33
2023-03-17T03:11:06.126Z,2.22
2023-03-17T03:13:33.372Z,2.47
2023-03-17T03:16:00.762Z,2.40
2023-03-17T03:18:28.117Z,2.65
2023-03-17T03:20:55.427Z,2.55
2023-03-17T03:23:22.696Z,2.67
2023-03-17T03:25:49.915Z,2.58
2023-03-17T03:28:17.142Z,3.03
2023-03-17T03:30:45.480Z,2.38
2023-03-17T03:33:13.935Z,2.10
2023-03-17T03:35:41.527Z,2.30
2023-03-17T03:38:09.009Z,2.30
2023-03-17T03:40:37.061Z,2.10
2023-03-17T03:43:19.906Z,2.20
2023-03-17T03:45:49.436Z,2.40
2023-03-17T03:48:16.865Z,2.47
2023-03-17T03:50:44.471Z,2.83
2023-03-17T03:53:11.707Z,2.40
2023-03-17T03:55:39.062Z,2.20
2023-03-17T03:58:06.707Z,2.30
2023-03-17T04:00:34.499Z,2.03
2023-03-17T04:03:01.919Z,2.08
2023-03-17T04:05:29.210Z,2.13
2023-03-17T04:07:56.535Z,2.05
2023-03-17T04:10:23.844Z,2.30
2023-03-17T04:12:51.038Z,2.08
2023-03-17T04:15:19.758Z,2.08
2023-03-17T04:17:47.458Z,2.10
2023-03-17T04:20:15.153Z,2.58
2023-03-17T04:22:42.986Z,2.25
2023-03-17T04:25:11.647Z,2.60
2023-03-17T04:27:38.836Z,2.20
2023-03-17T04:30:06.544Z,2.03
2023-03-17T04:32:33.875Z,2.05
2023-03-17T04:35:01.280Z,2.70
2023-03-17T04:37:28.465Z,2.05
2023-03-17T04:39:56.205Z,2.00
2023-03-17T04:42:23.427Z,2.10
2023-03-17T04:44:50.797Z,2.13
2023-03-17T04:47:18.063Z,2.15
2023-03-17T04:49:45.325Z,2.00
2023-03-17T04:52:12.731Z,2.10
2023-03-17T04:54:39.937Z,2.25
2023-03-17T04:57:07.183Z,2.10
2023-03-17T04:59:34.476Z,1.92
2023-03-17T05:02:02.354Z,2.03
2023-03-17T05:04:32.035Z,2.22
2023-03-17T05:06:59.927Z,2.38
2023-03-17T05:09:28.727Z,1.92
2023-03-17T05:11:56.322Z,2.20
2023-03-17T05:14:23.726Z,2.03
2023-03-17T05:16:51.406Z,2.45
2023-03-17T05:19:19.055Z,2.55
2023-03-17T05:21:47.556Z,2.20
2023-03-17T05:24:15.304Z,2.30
2023-03-17T05:26:42.545Z,2.03
2023-03-17T05:29:09.890Z,2.53
2023-03-17T05:31:37.456Z,2.40
2023-03-17T05:34:05.589Z,2.22
2023-03-17T05:36:33.536Z,2.20
2023-03-17T05:39:00.810Z,2.25
2023-03-17T05:41:28.626Z,2.30
2023-03-17T05:43:56.329Z,1.90
2023-03-17T05:46:23.634Z,2.15
2023-03-17T05:48:50.941Z,2.30
2023-03-17T05:51:18.173Z,2.40
2023-03-17T05:53:45.945Z,2.00
2023-03-17T05:56:13.341Z,1.98
2023-03-17T05:58:40.555Z,2.53
2023-03-17T06:01:08.005Z,1.90
2023-03-17T06:03:38.639Z,1.92
2023-03-17T06:06:06.673Z,2.20
2023-03-17T06:08:33.901Z,2.50
2023-03-17T06:11:01.810Z,2.10
2023-03-17T06:13:29.062Z,2.40
2023-03-17T06:15:57.564Z,2.20
2023-03-17T06:18:24.982Z,2.25
2023-03-17T06:20:52.248Z,2.33
2023-03-17T06:23:19.540Z,2.35
2023-03-17T06:25:47.702Z,2.35
2023-03-17T06:28:14.919Z,2.38
2023-03-17T06:30:42.171Z,2.20
2023-03-17T06:33:10.112Z,2.40
2023-03-17T06:35:38.259Z,2.40
2023-03-17T06:38:05.615Z,2.28
2023-03-17T06:40:34.044Z,2.40
2023-03-17T06:43:01.475Z,3.30
2023-03-17T06:45:28.879Z,3.50
2023-03-17T06:47:56.780Z,2.40
2023-03-17T06:50:24.083Z,2.63
2023-03-17T06:52:51.432Z,2.55
2023-03-17T06:55:18.731Z,2.70
2023-03-17T06:57:48.308Z,2.53
2023-03-17T07:00:17.369Z,2.28
2023-03-17T07:02:44.944Z,2.70
2023-03-17T07:05:13.915Z,2.55
2023-03-17T07:07:41.566Z,2.38
2023-03-17T07:10:10.731Z,2.28
2023-03-17T07:12:38.069Z,2.30
2023-03-17T07:15:05.708Z,2.60
2023-03-17T07:17:33.619Z,2.25
2023-03-17T07:20:00.884Z,2.65
2023-03-17T07:22:30.580Z,2.67
2023-03-17T07:24:57.820Z,2.65
2023-03-17T07:27:26.356Z,2.50
2023-03-17T07:29:53.673Z,2.35
2023-03-17T07:32:21.053Z,2.30
2023-03-17T07:34:48.414Z,2.33
2023-03-17T07:37:15.707Z,2.47
2023-03-17T07:39:43.685Z,2.42
2023-03-17T07:42:15.270Z,2.30
2023-03-17T07:44:42.790Z,2.50
2023-03-17T07:47:11.329Z,2.45
2023-03-17T07:49:42.089Z,2.50
2023-03-17T07:52:10.442Z,2.75
2023-03-17T07:54:37.882Z,3.00
2023-03-17T07:57:05.632Z,3.22
2023-03-17T07:59:33.125Z,2.70
2023-03-17T08:02:01.478Z,2.85
2023-03-17T08:04:29.251Z,2.47
2023-03-17T08:06:57.385Z,2.72
2023-03-17T08:09:24.925Z,2.50
2023-03-17T08:11:52.521Z,2.90
2023-03-17T08:14:20.442Z,3.33
2023-03-17T08:16:48.184Z,3.10
2023-03-17T08:19:16.256Z,3.47
2023-03-17T08:21:43.547Z,3.17
2023-03-17T08:24:11.089Z,3.70
2023-03-17T08:26:38.411Z,3.40
2023-03-17T08:29:05.909Z,3.22
2023-03-17T08:31:33.935Z,2.88
2023-03-17T08:34:02.792Z,2.67
2023-03-17T08:36:30.737Z,2.50
2023-03-17T08:38:58.066Z,2.90
2023-03-17T08:41:27.439Z,3.08
2023-03-17T08:46:23.297Z,2.50
2023-03-17T08:48:51.831Z,3.00
2023-03-17T08:51:22.836Z,2.65
2023-03-17T08:53:52.266Z,2.85
2023-03-17T08:56:20.012Z,3.80
2023-03-17T08:58:47.774Z,3.20
2023-03-17T09:01:15.346Z,2.95
2023-03-17T09:03:42.907Z,3.10
2023-03-17T09:06:12.254Z,3.08
2023-03-17T09:08:41.124Z,2.90
2023-03-17T09:11:10.466Z,2.83
2023-03-17T09:16:09.863Z,2.80
2023-03-17T09:18:37.228Z,2.95
2023-03-17T09:21:05.119Z,2.83
2023-03-17T09:23:32.878Z,3.30
2023-03-17T09:26:00.779Z,3.20
2023-03-17T09:28:29.082Z,3.03
2023-03-17T09:31:05.329Z,3.10
2023-03-17T09:33:32.574Z,3.17
2023-03-17T09:35:59.928Z,2.70
2023-03-17T09:38:27.910Z,3.03
2023-03-17T09:41:01.261Z,3.20
2023-03-17T09:43:38.170Z,2.88
2023-03-17T09:46:25.261Z,3.33
2023-03-17T09:48:55.475Z,2.90
2023-03-17T09:51:23.021Z,3.00
2023-03-17T09:53:55.130Z,3.08
2023-03-17T09:56:23.946Z,2.80
2023-03-17T09:59:17.629Z,3.03
2023-03-17T10:01:45.005Z,2.92
2023-03-17T10:04:12.513Z,3.30
2023-03-17T10:06:42.647Z,3.20
2023-03-17T10:09:28.582Z,3.15
2023-03-17T10:12:02.007Z,2.97
2023-03-17T10:14:44.616Z,3.00
2023-03-17T10:17:18.012Z,3.60
2023-03-17T10:19:56.641Z,3.17
2023-03-17T10:22:25.086Z,3.28
2023-03-17T10:24:55.370Z,3.60
2023-03-17T10:27:22.667Z,3.45
2023-03-17T10:29:50.003Z,3.20
2023-03-17T10:32:17.336Z,3.13
2023-03-17T10:34:44.666Z,3.13
2023-03-17T10:37:23.724Z,3.30
2023-03-17T10:39:56.134Z,3.47
2023-03-17T10:42:32.464Z,2.90
2023-03-17T10:45:03.160Z,3.22
2023-03-17T10:47:40.533Z,2.90
2023-03-17T10:50:17.174Z,3.63
2023-03-17T10:52:47.398Z,3.33
2023-03-17T10:55:20.414Z,3.55
2023-03-17T10:57:55.245Z,3.67
2023-03-17T11:00:23.310Z,3.40
2023-03-17T11:03:00.155Z,3.55
2023-03-17T11:05:29.221Z,3.50
2023-03-17T11:08:07.246Z,3.72
2023-03-17T11:10:37.709Z,3.47
2023-03-17T11:13:05.020Z,3.30
2023-03-17T11:15:37.155Z,3.90
2023-03-17T11:18:24.638Z,3.78
2023-03-17T11:20:55.499Z,3.90
2023-03-17T11:23:34.810Z,3.50
2023-03-17T11:26:07.716Z,4.07
2023-03-17T11:28:41.132Z,3.78
2023-03-17T11:31:15.458Z,3.70
2023-03-17T11:33:46.540Z,3.75
2023-03-17T11:36:29.284Z,3.65
2023-03-17T11:39:11.836Z,3.78
2023-03-17T11:41:54.362Z,3.70
2023-03-17T11:44:40.709Z,3.97
2023-03-17T11:47:09.162Z,3.70
2023-03-17T11:49:40.283Z,3.67
2023-03-17T11:52:17.302Z,3.72
2023-03-17T11:54:44.772Z,4.20
2023-03-17T11:57:21.861Z,3.83
2023-03-17T11:59:59.224Z,3.90
2023-03-17T12:02:32.546Z,3.78
2023-03-17T12:05:07.903Z,3.80
2023-03-17T12:07:42.045Z,3.88
2023-03-17T12:10:28.665Z,4.00
2023-03-17T12:13:01.245Z,3.72
2023-03-17T12:15:43.650Z,3.53
2023-03-17T12:18:18.272Z,3.92
2023-03-17T12:21:02.003Z,3.85
2023-03-17T12:23:49.583Z,3.95
2023-03-17T12:26:22.087Z,3.95
2023-03-17T12:28:52.274Z,3.80
2023-03-17T12:31:22.805Z,3.88
2023-03-17T12:34:25.805Z,3.60
2023-03-17T12:36:53.145Z,3.70
2023-03-17T12:39:25.033Z,3.92
2023-03-17T12:42:10.946Z,4.22
2023-03-17T12:45:15.764Z,4.03
2023-03-17T12:48:27.288Z,3.50
2023-03-17T12:51:12.837Z,3.83
2023-03-17T12:53:42.044Z,4.07
2023-03-17T12:56:12.182Z,3.88
2023-03-17T12:58:46.848Z,3.83
2023-03-17T13:01:23.285Z,4.10
2023-03-17T13:04:09.485Z,3.65
2023-03-17T13:06:40.103Z,4.18
2023-03-17T13:09:26.591Z,4.75
2023-03-17T13:11:53.809Z,4.10
2023-03-17T13:14:27.195Z,3.80
2023-03-17T13:17:05.113Z,4.20
2023-03-17T13:19:33.521Z,4.32
2023-03-17T13:22:01.079Z,3.67
2023-03-17T13:24:47.662Z,4.32
2023-03-17T13:27:34.800Z,4.25
2023-03-17T13:30:25.797Z,4.15
2023-03-17T13:33:19.827Z,3.78
2023-03-17T13:35:47.666Z,4.22
2023-03-17T13:38:33.792Z,4.25
2023-03-17T13:41:29.844Z,4.13
2023-03-17T13:43:57.494Z,4.20
2023-03-17T13:46:25.017Z,4.25
2023-03-17T13:48:55.325Z,3.75
2023-03-17T13:51:25.039Z,3.97
2023-03-17T13:53:56.426Z,4.45
2023-03-17T13:56:27.762Z,3.60
2023-03-17T13:59:05.100Z,4.05
2023-03-17T14:01:39.087Z,3.92
2023-03-17T14:04:09.327Z,4.07
2023-03-17T14:06:38.505Z,4.00
2023-03-17T14:09:31.982Z,4.35
2023-03-17T14:12:02.353Z,3.80
2023-03-17T14:14:50.309Z,3.90
2023-03-17T14:17:20.631Z,4.28
2023-03-17T14:20:08.734Z,4.05
2023-03-17T14:22:47.517Z,4.05
2023-03-17T14:25:19.225Z,4.18
2023-03-17T14:27:49.744Z,4.10
2023-03-17T14:30:21.876Z,4.22
2023-03-17T14:32:55.330Z,4.15
2023-03-17T14:35:22.634Z,4.35
2023-03-17T14:37:49.840Z,4.30
2023-03-17T14:40:21.815Z,4.28
2023-03-17T14:42:49.262Z,4.30
2023-03-17T14:45:21.841Z,4.38
2023-03-17T14:47:50.269Z,4.15
2023-03-17T14:50:26.217Z,4.00
2023-03-17T14:52:53.552Z,4.05
2023-03-17T14:55:21.240Z,3.88
2023-03-17T14:57:49.962Z,4.20
2023-03-17T15:00:21.234Z,4.28
2023-03-17T15:02:56.349Z,4.55
2023-03-17T15:05:30.921Z,4.32
2023-03-17T15:07:58.412Z,4.53
2023-03-17T15:10:34.293Z,4.07
2023-03-17T15:13:02.909Z,4.05
2023-03-17T15:15:38.838Z,4.30
2023-03-17T15:18:11.006Z,4.72
2023-03-17T15:20:38.288Z,4.32
2023-03-17T15:23:18.360Z,4.00
2023-03-17T15:25:47.048Z,4.13
2023-03-17T15:28:15.457Z,4.20
2023-03-17T15:30:47.723Z,4.65
2023-03-17T15:33:21.898Z,4.22
2023-03-17T15:35:50.285Z,4.43
2023-03-17T15:38:17.853Z,4.50
2023-03-17T15:40:45.598Z,4.30
2023-03-17T15:43:16.667Z,4.50
2023-03-17T15:45:45.121Z,4.18
2023-03-17T15:48:25.415Z,4.68
2023-03-17T15:50:55.499Z,4.15
2023-03-17T15:53:23.139Z,4.50
2023-03-17T15:55:50.503Z,4.78
2023-03-17T15:58:17.741Z,4.47
2023-03-17T16:00:50.187Z,4.40
2023-03-17T16:03:20.439Z,4.15
2023-03-17T16:05:47.712Z,4.13
2023-03-17T16:08:17.779Z,4.25
2023-03-17T16:10:45.384Z,5.10
2023-03-17T16:13:13.018Z,4.25
2023-03-17T16:15:42.301Z,4.22
2023-03-17T16:18:16.681Z,4.22
2023-03-17T16:20:44.920Z,3.85
2023-03-17T16:23:15.505Z,4.35
2023-03-17T16:25:42.823Z,4.18
2023-03-17T16:28:29.871Z,4.15
2023-03-17T16:30:59.063Z,4.30
2023-03-17T16:35:55.826Z,4.03
2023-03-17T16:38:24.558Z,3.95
2023-03-17T16:40:52.983Z,4.63
2023-03-17T16:43:25.923Z,3.97
2023-03-17T16:45:55.021Z,3.72
2023-03-17T16:48:22.288Z,3.92
2023-03-17T16:50:49.963Z,4.88
2023-03-17T16:53:17.558Z,5.25
2023-03-17T16:55:45.438Z,6.20
2023-03-17T16:58:20.162Z,6.40
2023-03-17T17:00:48.146Z,7.20
2023-03-17T17:03:15.967Z,7.32
2023-03-17T17:05:43.795Z,9.57
2023-03-17T17:08:11.142Z,9.18
2023-03-17T17:10:39.076Z,8.57
2023-03-17T17:13:07.812Z,11.43
2023-03-17T17:15:36.077Z,7.25
2023-03-17T17:18:07.940Z,8.00
2023-03-17T17:20:37.641Z,7.93
2023-03-17T17:23:04.976Z,6.88
2023-03-17T17:25:32.421Z,7.88
2023-03-17T17:27:59.863Z,7.57
2023-03-17T17:30:28.320Z,7.70
2023-03-17T17:32:57.641Z,7.00
2023-03-17T17:35:25.979Z,6.63
2023-03-17T17:37:53.786Z,6.28
2023-03-17T17:40:24.357Z,6.43
2023-03-17T17:42:52.631Z,6.32
2023-03-17T17:45:20.275Z,6.07
2023-03-17T17:47:48.059Z,5.93
2023-03-17T17:50:23.946Z,5.82
2023-03-17T17:52:51.301Z,4.95
2023-03-17T17:55:18.702Z,5.85
2023-03-17T17:57:45.954Z,5.68
2023-03-17T18:00:14.408Z,5.88
2023-03-17T18:02:41.713Z,5.45
2023-03-17T18:05:09.117Z,6.03
2023-03-17T18:07:36.431Z,5.90
2023-03-17T18:10:04.797Z,6.35
2023-03-17T18:12:32.525Z,6.13
2023-03-17T18:14:59.834Z,7.70
2023-03-17T18:17:27.313Z,6.57
2023-03-17T18:19:54.676Z,6.80
2023-03-17T18:22:22.587Z,6.90
2023-03-17T18:24:50.381Z,7.05
2023-03-17T18:27:17.882Z,6.97
2023-03-17T18:29:47.224Z,7.18
2023-03-17T18:32:14.699Z,6.60
2023-03-17T18:34:44.382Z,7.05
2023-03-17T18:37:13.544Z,7.15
2023-03-17T18:42:08.829Z,6.80
2023-03-17T18:44:36.358Z,6.75
2023-03-17T18:47:03.704Z,7.32
2023-03-17T18:49:31.074Z,7.63
2023-03-17T18:51:59.533Z,7.47
2023-03-17T18:54:28.862Z,7.60
2023-03-17T18:56:56.823Z,7.88
2023-03-17T18:59:24.212Z,7.50
2023-03-17T19:01:51.575Z,7.90
2023-03-17T19:04:18.796Z,7.72
2023-03-17T19:06:46.577Z,7.93
2023-03-17T19:09:13.975Z,8.43
2023-03-17T19:11:42.014Z,8.38
2023-03-17T19:14:09.913Z,8.80
2023-03-17T19:16:37.178Z,8.75
2023-03-17T19:19:04.506Z,7.68
2023-03-17T19:21:32.467Z,8.43
2023-03-17T19:24:02.178Z,8.88
2023-03-17T19:26:31.153Z,8.70
2023-03-17T19:28:58.455Z,7.90
2023-03-17T19:31:26.064Z,8.52
2023-03-17T19:33:55.316Z,8.13
2023-03-17T19:38:50.032Z,8.02
2023-03-17T19:41:17.812Z,8.30
2023-03-17T19:43:45.339Z,8.38
2023-03-17T19:46:12.741Z,8.05
2023-03-17T19:48:40.690Z,8.48
2023-03-17T19:51:08.135Z,7.80
2023-03-17T19:53:35.632Z,6.95
2023-03-17T19:56:02.881Z,7.28
2023-03-17T19:58:30.227Z,6.13
2023-03-17T20:00:57.446Z,5.60
2023-03-17T20:03:26.294Z,5.72
2023-03-17T20:05:53.987Z,5.70
2023-03-17T20:08:22.471Z,5.82
2023-03-17T20:10:56.149Z,5.85
2023-03-17T20:13:23.439Z,5.57
2023-03-17T20:15:51.663Z,5.35
2023-03-17T20:18:19.903Z,5.47
2023-03-17T20:20:49.884Z,6.45
2023-03-17T20:23:17.429Z,5.55
2023-03-17T20:25:44.832Z,5.20
2023-03-17T20:28:12.751Z,5.60
2023-03-17T20:30:40.556Z,5.07
2023-03-17T20:33:09.762Z,6.43
2023-03-17T20:35:39.593Z,5.65
2023-03-17T20:38:08.319Z,5.78
2023-03-17T20:40:35.744Z,6.03
2023-03-17T20:43:03.050Z,6.00
2023-03-17T20:45:30.379Z,6.35
2023-03-17T20:47:57.669Z,5.43
2023-03-17T20:50:25.178Z,5.80
2023-03-17T20:52:52.424Z,5.70
2023-03-17T20:55:20.188Z,5.95
2023-03-17T20:57:48.659Z,6.07
2023-03-17T21:00:17.871Z,6.15
2023-03-17T21:02:48.428Z,5.60
2023-03-17T21:05:16.014Z,5.53
2023-03-17T21:07:43.487Z,5.97
2023-03-17T21:10:11.481Z,6.15
2023-03-17T21:12:38.779Z,6.05
2023-03-17T21:15:07.710Z,5.50
2023-03-17T21:17:35.015Z,5.75
2023-03-17T21:20:02.356Z,5.65
2023-03-17T21:22:30.058Z,6.00
2023-03-17T21:24:57.320Z,5.97
2023-03-17T21:27:24.596Z,6.13
2023-03-17T21:29:52.224Z,5.70
2023-03-17T21:32:19.511Z,5.90
2023-03-17T21:34:47.865Z,6.05
2023-03-17T21:37:18.529Z,6.30
2023-03-17T21:39:45.866Z,6.30
2023-03-17T21:42:13.608Z,6.15
2023-03-17T21:44:41.061Z,6.05
2023-03-17T21:47:08.751Z,6.15
2023-03-17T21:49:35.999Z,6.68
2023-03-17T21:52:03.239Z,6.28
2023-03-17T21:54:30.577Z,6.50
2023-03-17T21:56:58.334Z,5.90
2023-03-17T21:59:26.024Z,6.63
2023-03-17T22:01:53.595Z,5.93
2023-03-17T22:04:21.243Z,6.03
2023-03-17T22:06:48.456Z,6.40
2023-03-17T22:09:17.596Z,6.35
2023-03-17T22:11:46.365Z,6.32
2023-03-17T22:14:17.328Z,6.18
2023-03-17T22:16:44.606Z,5.88
2023-03-17T22:19:12.027Z,6.00
2023-03-17T22:21:39.432Z,6.13
2023-03-17T22:24:07.277Z,6.28
2023-03-17T22:26:34.646Z,6.15
2023-03-17T22:29:02.083Z,6.05
2023-03-17T22:31:29.756Z,6.18
2023-03-17T22:33:58.222Z,6.03
2023-03-17T22:36:26.432Z,6.78
2023-03-17T22:38:53.649Z,6.28
2023-03-17T22:41:22.461Z,6.28
2023-03-17T22:43:50.136Z,7.28
2023-03-17T22:46:17.828Z,6.70
2023-03-17T22:48:46.354Z,5.95
2023-03-17T22:51:16.434Z,6.50
2023-03-17T22:53:44.012Z,6.65
2023-03-17T22:56:12.368Z,6.78
2023-03-17T22:58:40.368Z,6.85
2023-03-17T23:01:08.034Z,7.35
2023-03-17T23:03:36.236Z,7.38
2023-03-17T23:06:04.166Z,6.85
2023-03-17T23:08:34.997Z,7.28
2023-03-17T23:11:04.611Z,7.13
2023-03-17T23:13:31.843Z,6.75
2023-03-17T23:15:59.453Z,7.45
2023-03-17T23:18:26.684Z,6.43
2023-03-17T23:20:54.098Z,6.80
2023-03-17T23:23:21.331Z,6.28
2023-03-17T23:25:48.789Z,6.28
2023-03-17T23:28:16.410Z,7.25
2023-03-17T23:30:44.019Z,7.20
2023-03-17T23:33:11.317Z,8.18
2023-03-17T23:35:39.566Z,7.60
2023-03-17T23:38:06.929Z,7.07
2023-03-17T23:40:34.620Z,7.28
2023-03-17T23:43:02.186Z,7.70
2023-03-17T23:45:29.479Z,7.57
2023-03-17T23:47:57.535Z,7.47
2023-03-17T23:50:24.881Z,7.45
2023-03-17T23:52:54.006Z,7.47
2023-03-17T23:55:21.360Z,7.45
2023-03-17T23:57:49.252Z,7.60
